This is the latest recevied weather packets stored in our database for station/object DD6UBW. If no packets are shown the sender has not sent any weather packets the latest 10 day(s).
| Time | Temp. | Humidity | Pressure | Rain* | Wind** | Luminosity | Snow |
|---|---|---|---|---|---|---|---|
| 1788471000 | 17.78° C | 84% | 1013.6 hPa | 0 mm | - | - | - |
| 1788469200 | 18.89° C | 78% | 1013.6 hPa | 0 mm | - | - | - |
| 1788467400 | 19.44° C | 73% | 1013.6 hPa | 0 mm | - | - | - |
| 1788465618 | 19.44° C | 73% | 1013.6 hPa | 0 mm | - | - | - |
| 1788463801 | 19.44° C | 75% | 1013.6 hPa | 0 mm | - | - | - |
| 1788462001 | 18.89° C | 76% | 1013.6 hPa | 0 mm | - | - | - |
| 1788460201 | 19.44° C | 76% | 1013.6 hPa | 0 mm | - | - | - |
| 1788458400 | 19.44° C | 78% | 1013.6 hPa | 0 mm | - | - | - |
| 1788456601 | 19.44° C | 78% | 1013.6 hPa | 0 mm | - | - | - |
| 1788454800 | 18.89° C | 78% | 1012.6 hPa | 0 mm | - | - | - |
| 1788453001 | 19.44° C | 76% | 1012.6 hPa | 0 mm | - | - | - |
| 1788451200 | 20.56° C | 69% | 1013.6 hPa | 0 mm | - | - | - |
| 1788449400 | 22.78° C | 59% | 1013.6 hPa | 0 mm | - | - | - |
| 1788447601 | 22.22° C | 59% | 1012.6 hPa | 0 mm | - | - | - |
| 1788445800 | 21.67° C | 62% | 1013.6 hPa | 0 mm | - | - | - |
| 1788444000 | 22.22° C | 58% | 1013.6 hPa | 0 mm | - | - | - |
| 1788442201 | 22.78° C | 56% | 1013.6 hPa | 0 mm | - | - | - |
| 1788440401 | 22.22° C | 57% | 1013.6 hPa | 0 mm | - | - | - |
| 1788438601 | 21.67° C | 59% | 1013.6 hPa | 0 mm | - | - | - |
| 1788436802 | 21.67° C | 59% | 1014.6 hPa | 0 mm | - | - | - |
| 1788435001 | 21.11° C | 59% | 1014.6 hPa | 0 mm | - | - | - |
| 1788433201 | 20.56° C | 60% | 1014.6 hPa | 0 mm | - | - | - |
| 1788431402 | 20.56° C | 61% | 1015.6 hPa | 0 mm | - | - | - |
| 1788429600 | 20.56° C | 62% | 1015.6 hPa | 0 mm | - | - | - |
| 1788427801 | 20° C | 65% | 1015.6 hPa | 0 mm | - | - | - |
* Rain since midnight (hover to see other rain measurements)
** Current wind speed in m/s (hover to see current wind gust speed)